Time;durP1;ratioP1;P1;durP2;ratioP2;P2;SDS_P1;SDS_P2;PMS_P1;PMS_P2;Temp;Humidity;BMP_temperature;BMP_pressure;BME280_temperature;BME280_humidity;BME280_pressure;Samples;Min_cycle;Max_cycle;Signal;HPM_P1;HPM_P2
2024/01/19 00:18:57;;;;;;;28.42;4.30;;;;;;;14.75;73.51;95419.84;6126820;23;20068;-28
2024/01/19 00:32:02;;;;;;;16.58;2.58;;;;;;;14.76;72.96;95402.25;6127051;23;20053;-27
2024/01/19 00:47:54;;;;;;;17.13;2.88;;;;;;;14.87;72.04;95420.72;6126893;23;20040;-28
2024/01/19 01:03:48;;;;;;;18.38;2.50;;;;;;;14.78;71.95;95429.06;6149694;23;20348;-27
2024/01/19 01:06:13;;;;;;;21.10;2.60;;;;;;;14.77;72.19;95428.31;6156275;23;20014;-27
2024/01/19 01:18:44;;;;;;;15.23;2.47;;;;;;;14.84;71.73;95433.34;6156434;23;20105;-27
2024/01/19 01:32:45;;;;;;;13.23;3.53;;;;;;;14.76;71.57;95436.97;6155909;23;20347;-28
2024/01/19 01:49:03;;;;;;;15.73;2.72;;;;;;;14.47;72.41;95435.84;6155465;23;19931;-27
2024/01/19 02:04:55;;;;;;;18.63;3.60;;;;;;;14.81;70.79;95430.84;6154236;23;20083;-27
2024/01/19 02:18:16;;;;;;;15.77;2.15;;;;;;;14.60;71.46;95454.63;6155370;23;20332;-27
2024/01/19 02:34:08;;;;;;;16.92;2.63;;;;;;;14.60;72.34;95436.28;6155134;23;20335;-27
2024/01/19 02:50:01;;;;;;;18.90;2.40;;;;;;;14.61;72.05;95426.88;6155030;23;20020;-27
2024/01/19 03:20:11;;;;;;;16.48;4.05;;;;;;;14.61;73.32;95462.34;6154989;23;20020;-27
2024/01/19 03:36:04;;;;;;;22.52;3.05;;;;;;;14.55;74.23;95496.25;6156760;23;20064;-27
2024/01/19 03:49:12;;;;;;;9.98;2.25;;;;;;;14.45;75.26;95522.16;6156813;23;20056;-27
2024/01/19 04:05:06;;;;;;;21.38;3.50;;;;;;;14.72;75.62;95508.13;6155125;23;20041;-27
2024/01/19 04:07:31;;;;;;;21.10;3.47;;;;;;;14.70;76.05;95500.44;6157170;23;20009;-27
2024/01/19 04:20:01;;;;;;;17.70;2.65;;;;;;;14.71;76.59;95493.00;6156188;23;20539;-27
2024/01/19 04:35:53;;;;;;;20.65;3.17;;;;;;;14.75;76.59;95488.09;6156622;23;20487;-27
2024/01/19 04:51:45;;;;;;;17.75;3.30;;;;;;;14.57;77.46;95470.00;6155905;23;20114;-27
2024/01/19 05:22:08;;;;;;;22.70;4.03;;;;;;;14.66;77.66;95499.88;6155558;23;20036;-27
2024/01/19 05:24:33;;;;;;;20.38;4.97;;;;;;;14.54;77.65;95490.03;6156014;23;20016;-27
2024/01/19 05:37:04;;;;;;;19.88;3.80;;;;;;;14.55;78.26;95502.47;6155754;23;20386;-27
2024/01/19 06:06:23;;;;;;;20.30;3.83;;;;;;;14.60;79.06;95487.38;6154121;23;20117;-27
2024/01/19 06:22:16;;;;;;;16.58;2.72;;;;;;;14.58;79.16;95498.78;6155184;23;20351;-27
2024/01/19 06:24:42;;;;;;;20.02;3.80;;;;;;;14.78;78.81;95491.84;6155840;23;20006;-27
2024/01/19 06:37:25;;;;;;;24.40;5.05;;;;;;;14.42;80.95;95504.75;6155039;23;20040;-27
2024/01/19 06:53:18;;;;;;;16.35;3.50;;;;;;;14.73;79.59;95510.38;6155322;23;20470;-27
2024/01/19 07:06:33;;;;;;;18.67;3.03;;;;;;;14.54;80.20;95532.94;6155221;23;20063;-27
2024/01/19 07:08:59;;;;;;;19.85;3.85;;;;;;;14.81;78.67;95507.28;6153423;23;20448;-27
2024/01/19 07:21:45;;;;;;;22.05;3.08;;;;;;;14.91;78.09;95547.63;6156984;23;20017;-27
2024/01/19 07:37:37;;;;;;;17.13;3.10;;;;;;;14.74;78.39;95574.66;6156938;23;20078;-28
2024/01/19 07:53:29;;;;;;;20.30;2.08;;;;;;;14.84;77.71;95602.59;6156368;23;20068;-27
2024/01/19 08:23:14;;;;;;;19.63;3.08;;;;;;;14.64;79.93;95610.72;6156446;23;20407;-27
2024/01/19 08:39:10;;;;;;;18.00;3.42;;;;;;;14.85;79.36;95600.63;6156192;23;20023;-25
2024/01/19 08:55:03;;;;;;;20.30;2.97;;;;;;;14.90;79.29;95599.97;6156105;23;20375;-25
2024/01/19 09:07:59;;;;;;;26.95;3.42;;;;;;;15.07;78.90;95611.88;6155162;23;20036;-27
2024/01/19 09:23:53;;;;;;;17.98;3.25;;;;;;;18.95;62.08;95606.06;6126325;23;20016;-28
2024/01/19 09:39:45;;;;;;;19.42;3.58;;;;;;;18.10;65.32;95631.16;6126590;23;20336;-27
2024/01/19 09:55:37;;;;;;;15.43;4.65;;;;;;;17.09;68.49;95637.41;6125605;23;20017;-27
2024/01/19 10:08:58;;;;;;;17.02;3.72;;;;;;;16.32;71.30;95632.78;6128659;23;20013;-28
2024/01/19 10:11:24;;;;;;;19.92;5.00;;;;;;;16.07;72.98;95626.78;6125966;23;20021;-28
2024/01/19 10:24:14;;;;;;;13.90;3.53;;;;;;;15.98;72.81;95624.22;6125511;23;20443;-28
2024/01/19 10:40:33;;;;;;;14.13;3.45;;;;;;;15.51;75.80;95638.28;6125860;23;20020;-27
2024/01/19 11:09:52;;;;;;;13.75;3.40;;;;;;;15.52;75.76;95610.47;6140761;23;20513;-27
2024/01/19 11:12:19;;;;;;;15.85;3.45;;;;;;;15.57;75.69;95611.81;6157348;23;20060;-27
2024/01/19 11:24:52;;;;;;;12.57;2.72;;;;;;;15.49;76.22;95616.16;6156924;23;20052;-28
2024/01/19 11:40:47;;;;;;;18.88;3.28;;;;;;;15.40;76.98;95598.66;6156859;23;20016;-28
2024/01/19 11:54:45;;;;;;;15.88;3.75;;;;;;;15.46;76.57;95591.28;6156309;23;20068;-27
2024/01/19 12:11:28;;;;;;;23.10;3.60;;;;;;;15.59;75.75;95598.41;6155338;23;20190;-27
2024/01/19 12:40:47;;;;;;;15.18;3.80;;;;;;;15.53;74.83;95548.38;6156510;23;20502;-27
2024/01/19 12:56:40;;;;;;;20.08;3.45;;;;;;;15.67;74.06;95547.56;6155598;23;20012;-27
2024/01/19 13:12:32;;;;;;;18.33;3.83;;;;;;;15.44;75.08;95565.69;6155177;23;20347;-27
2024/01/19 13:25:46;;;;;;;18.95;5.38;;;;;;;15.31;74.92;95578.94;6155480;23;20028;-27
2024/01/19 13:41:38;;;;;;;22.80;4.13;;;;;;;15.53;74.10;95564.78;6156012;23;20114;-27
2024/01/19 13:57:40;;;;;;;18.52;3.63;;;;;;;15.83;72.68;95582.53;6155545;23;20068;-27
2024/01/19 14:27:50;;;;;;;18.77;4.35;;;;;;;15.60;73.78;95591.72;6155327;23;20444;-27
2024/01/19 14:43:42;;;;;;;14.82;2.72;;;;;;;15.53;74.95;95589.38;6155522;23;20455;-27
2024/01/19 14:56:51;;;;;;;18.40;2.92;;;;;;;15.48;74.71;95620.09;6153369;23;20036;-27
2024/01/19 15:12:25;;;;;;;16.63;3.35;;;;;;;15.39;75.65;95613.56;6153800;23;20044;-27
2024/01/19 15:28:19;;;;;;;16.02;3.40;;;;;;;15.40;75.38;95625.22;6155206;23;20148;-27
2024/01/19 15:44:11;;;;;;;26.50;4.47;;;;;;;15.63;73.89;95637.22;6156790;23;20020;-27
2024/01/19 15:46:36;;;;;;;22.23;4.07;;;;;;;15.50;74.75;95639.50;6157091;23;20343;-27
2024/01/19 15:49:02;;;;;;;16.23;4.78;;;;;;;15.60;74.19;95651.84;6156797;23;20009;-27
2024/01/19 15:58:12;;;;;;;35.72;12.65;;;;;;;15.52;74.37;95648.00;6156826;23;20013;-27
2024/01/19 16:14:04;;;;;;;29.40;8.23;;;;;;;15.45;74.01;95628.03;6155042;23;20083;-28
2024/01/19 16:29:57;;;;;;;16.90;4.38;;;;;;;15.38;73.92;95650.28;6156312;23;20047;-27
2024/01/19 16:43:01;;;;;;;17.20;6.07;;;;;;;15.44;73.78;95642.94;6156160;23;20390;-27
2024/01/19 16:58:53;;;;;;;28.42;11.05;;;;;;;15.39;73.88;95665.47;6155752;23;20067;-28
2024/01/19 17:14:45;;;;;;;28.15;15.20;;;;;;;15.44;73.16;95708.50;6154398;23;20098;-27
2024/01/19 17:30:39;;;;;;;45.63;18.73;;;;;;;15.51;73.46;95728.47;6155590;23;20141;-27
2024/01/19 17:43:40;;;;;;;62.60;24.45;;;;;;;15.38;73.46;95743.19;6156010;23;20490;-27
2024/01/19 17:46:08;;;;;;;71.10;29.77;;;;;;;15.65;72.61;95742.13;6155961;23;20052;-27
2024/01/19 17:48:34;;;;;;;67.38;31.85;;;;;;;15.52;73.24;95749.09;6155691;23;20008;-27
2024/01/19 17:50:59;;;;;;;68.03;29.98;;;;;;;15.46;73.39;95752.50;6155942;23;20002;-27
2024/01/19 18:31:50;;;;;;;24.42;11.00;;;;;;;15.39;67.38;95769.28;6151370;23;20020;-27
2024/01/19 18:47:43;;;;;;;27.25;11.85;;;;;;;15.33;69.19;95803.22;6125760;23;20106;-27
2024/01/19 19:03:36;;;;;;;14.30;4.95;;;;;;;15.48;70.25;95816.84;6125741;23;20348;-27
2024/01/19 19:32:57;;;;;;;11.63;7.07;;;;;;;15.03;69.04;95855.09;6139571;23;20347;-27
2024/01/19 19:48:50;;;;;;;8.05;6.22;;;;;;;14.89;66.89;95855.84;6156649;23;20039;-27
2024/01/19 20:04:42;;;;;;;9.57;5.05;;;;;;;14.73;64.11;95857.00;6156441;23;20067;-27
2024/01/19 20:20:47;;;;;;;6.20;3.67;;;;;;;14.71;64.00;95875.09;6156677;23;20016;-27
2024/01/19 20:33:18;;;;;;;8.15;4.05;;;;;;;14.67;62.92;95899.06;6154577;23;20040;-27
2024/01/19 20:49:11;;;;;;;7.05;3.50;;;;;;;14.37;62.39;95909.06;6156018;23;20093;-27
2024/01/19 21:05:04;;;;;;;7.47;3.80;;;;;;;14.41;59.48;95920.63;6156085;23;20020;-27
2024/01/19 21:34:24;;;;;;;4.13;1.83;;;;;;;14.16;59.62;95923.75;6154835;23;20105;-27
2024/01/19 21:50:17;;;;;;;3.15;2.45;;;;;;;14.17;58.37;95968.88;6155635;23;20121;-28
2024/01/19 22:06:31;;;;;;;1.95;0.73;;;;;;;13.83;58.38;95995.34;6155542;23;20344;-28
2024/01/19 22:19:26;;;;;;;0.95;0.50;;;;;;;13.50;59.30;95989.03;6155402;23;20148;-27
2024/01/19 22:35:18;;;;;;;2.25;0.60;;;;;;;13.63;56.19;96046.84;6153700;23;20031;-27
2024/01/19 22:51:12;;;;;;;1.42;1.20;;;;;;;13.44;56.47;96078.03;6155094;23;20017;-27
2024/01/19 23:07:04;;;;;;;2.90;0.65;;;;;;;13.20;55.46;96089.50;6155137;23;20020;-27
2024/01/19 23:20:09;;;;;;;2.85;1.45;;;;;;;13.17;54.79;96117.63;6155210;23;20036;-27
2024/01/19 23:36:02;;;;;;;2.60;1.00;;;;;;;13.01;55.69;96136.91;6154008;23;20040;-27
2024/01/19 23:51:54;;;;;;;4.28;1.10;;;;;;;12.91;54.51;96146.25;6156713;23;20017;-28
2024/01/19 23:54:19;;;;;;;5.50;1.08;;;;;;;12.81;55.43;96141.97;6157250;23;20006;-27
2024/01/19 23:56:45;;;;;;;4.47;0.75;;;;;;;12.92;55.09;96158.66;6156768;23;20092;-27
